sensor_id;sensor_type;location;lat;lon;timestamp;P1;durP1;ratioP1;P2;durP2;ratioP2
37459;SDS011;23318;50.966;5.284;2023-11-21T00:01:31;49.30;;;15.45;;
37459;SDS011;23318;50.966;5.284;2023-11-21T00:03:57;53.13;;;14.45;;
37459;SDS011;23318;50.966;5.284;2023-11-21T00:06:23;56.53;;;13.70;;
37459;SDS011;23318;50.966;5.284;2023-11-21T00:08:49;59.10;;;15.10;;
37459;SDS011;23318;50.966;5.284;2023-11-21T00:11:14;47.63;;;13.85;;
37459;SDS011;23318;50.966;5.284;2023-11-21T00:13:40;55.28;;;13.80;;
37459;SDS011;23318;50.966;5.284;2023-11-21T00:16:05;56.03;;;15.13;;
37459;SDS011;23318;50.966;5.284;2023-11-21T00:18:32;54.28;;;14.23;;
37459;SDS011;23318;50.966;5.284;2023-11-21T00:20:58;47.92;;;13.38;;
37459;SDS011;23318;50.966;5.284;2023-11-21T00:23:24;51.58;;;13.50;;
37459;SDS011;23318;50.966;5.284;2023-11-21T00:25:50;53.53;;;14.80;;
37459;SDS011;23318;50.966;5.284;2023-11-21T00:28:16;57.30;;;14.88;;
37459;SDS011;23318;50.966;5.284;2023-11-21T00:30:41;51.28;;;13.75;;
37459;SDS011;23318;50.966;5.284;2023-11-21T00:33:07;57.67;;;14.18;;
37459;SDS011;23318;50.966;5.284;2023-11-21T00:35:32;52.42;;;13.48;;
37459;SDS011;23318;50.966;5.284;2023-11-21T00:37:58;48.40;;;13.32;;
37459;SDS011;23318;50.966;5.284;2023-11-21T00:40:24;43.05;;;12.45;;
37459;SDS011;23318;50.966;5.284;2023-11-21T00:42:49;48.92;;;13.88;;
37459;SDS011;23318;50.966;5.284;2023-11-21T00:45:15;54.05;;;13.52;;
37459;SDS011;23318;50.966;5.284;2023-11-21T00:47:41;47.78;;;14.10;;
37459;SDS011;23318;50.966;5.284;2023-11-21T00:50:08;54.90;;;14.68;;
37459;SDS011;23318;50.966;5.284;2023-11-21T00:52:34;52.97;;;13.38;;
37459;SDS011;23318;50.966;5.284;2023-11-21T00:55:01;55.22;;;14.05;;
37459;SDS011;23318;50.966;5.284;2023-11-21T00:57:28;63.40;;;14.23;;
37459;SDS011;23318;50.966;5.284;2023-11-21T00:59:53;55.70;;;14.07;;
37459;SDS011;23318;50.966;5.284;2023-11-21T01:02:19;43.25;;;13.85;;
37459;SDS011;23318;50.966;5.284;2023-11-21T01:04:45;51.67;;;14.43;;
37459;SDS011;23318;50.966;5.284;2023-11-21T01:07:12;55.03;;;13.85;;
37459;SDS011;23318;50.966;5.284;2023-11-21T01:09:38;47.15;;;14.02;;
37459;SDS011;23318;50.966;5.284;2023-11-21T01:12:04;53.50;;;14.57;;
37459;SDS011;23318;50.966;5.284;2023-11-21T01:14:30;46.78;;;13.77;;
37459;SDS011;23318;50.966;5.284;2023-11-21T01:16:55;54.35;;;14.05;;
37459;SDS011;23318;50.966;5.284;2023-11-21T01:19:21;41.70;;;13.00;;
37459;SDS011;23318;50.966;5.284;2023-11-21T01:21:46;55.53;;;15.15;;
37459;SDS011;23318;50.966;5.284;2023-11-21T01:24:12;61.65;;;14.45;;
37459;SDS011;23318;50.966;5.284;2023-11-21T01:26:38;46.03;;;13.95;;
37459;SDS011;23318;50.966;5.284;2023-11-21T01:29:03;49.83;;;14.70;;
37459;SDS011;23318;50.966;5.284;2023-11-21T01:31:29;51.28;;;14.82;;
37459;SDS011;23318;50.966;5.284;2023-11-21T01:33:55;50.95;;;13.10;;
37459;SDS011;23318;50.966;5.284;2023-11-21T01:36:21;49.88;;;14.57;;
37459;SDS011;23318;50.966;5.284;2023-11-21T01:38:47;51.15;;;13.90;;
37459;SDS011;23318;50.966;5.284;2023-11-21T01:41:15;47.63;;;14.27;;
37459;SDS011;23318;50.966;5.284;2023-11-21T01:43:41;57.67;;;14.02;;
37459;SDS011;23318;50.966;5.284;2023-11-21T01:46:08;50.50;;;14.85;;
37459;SDS011;23318;50.966;5.284;2023-11-21T01:48:34;52.55;;;14.38;;
37459;SDS011;23318;50.966;5.284;2023-11-21T01:51:00;61.20;;;15.27;;
37459;SDS011;23318;50.966;5.284;2023-11-21T01:53:26;52.33;;;14.90;;
37459;SDS011;23318;50.966;5.284;2023-11-21T01:55:53;55.20;;;14.50;;
37459;SDS011;23318;50.966;5.284;2023-11-21T01:58:20;52.42;;;13.90;;
37459;SDS011;23318;50.966;5.284;2023-11-21T02:00:46;55.05;;;14.43;;
37459;SDS011;23318;50.966;5.284;2023-11-21T02:03:15;53.00;;;15.02;;
37459;SDS011;23318;50.966;5.284;2023-11-21T02:05:41;54.83;;;15.10;;
37459;SDS011;23318;50.966;5.284;2023-11-21T02:08:07;51.08;;;14.82;;
37459;SDS011;23318;50.966;5.284;2023-11-21T02:10:34;47.83;;;13.73;;
37459;SDS011;23318;50.966;5.284;2023-11-21T02:13:02;55.95;;;16.00;;
37459;SDS011;23318;50.966;5.284;2023-11-21T02:15:27;65.60;;;16.27;;
37459;SDS011;23318;50.966;5.284;2023-11-21T02:17:54;60.47;;;16.40;;
37459;SDS011;23318;50.966;5.284;2023-11-21T02:20:20;53.63;;;14.27;;
37459;SDS011;23318;50.966;5.284;2023-11-21T02:22:49;52.90;;;15.48;;
37459;SDS011;23318;50.966;5.284;2023-11-21T02:25:15;66.72;;;16.85;;
37459;SDS011;23318;50.966;5.284;2023-11-21T02:27:40;54.00;;;16.15;;
37459;SDS011;23318;50.966;5.284;2023-11-21T02:30:08;67.63;;;18.30;;
37459;SDS011;23318;50.966;5.284;2023-11-21T02:32:37;70.32;;;17.58;;
37459;SDS011;23318;50.966;5.284;2023-11-21T02:35:05;62.88;;;16.17;;
37459;SDS011;23318;50.966;5.284;2023-11-21T02:37:33;65.00;;;17.77;;
37459;SDS011;23318;50.966;5.284;2023-11-21T02:39:58;68.78;;;17.52;;
37459;SDS011;23318;50.966;5.284;2023-11-21T02:42:24;63.22;;;17.85;;
37459;SDS011;23318;50.966;5.284;2023-11-21T02:44:50;66.55;;;18.17;;
37459;SDS011;23318;50.966;5.284;2023-11-21T02:47:16;67.25;;;18.33;;
37459;SDS011;23318;50.966;5.284;2023-11-21T02:49:41;60.47;;;18.80;;
37459;SDS011;23318;50.966;5.284;2023-11-21T02:52:07;72.80;;;18.70;;
37459;SDS011;23318;50.966;5.284;2023-11-21T02:54:33;72.25;;;18.77;;
37459;SDS011;23318;50.966;5.284;2023-11-21T02:57:01;85.68;;;21.23;;
37459;SDS011;23318;50.966;5.284;2023-11-21T02:59:27;84.45;;;22.30;;
37459;SDS011;23318;50.966;5.284;2023-11-21T03:01:53;74.63;;;20.85;;
37459;SDS011;23318;50.966;5.284;2023-11-21T03:04:18;88.30;;;22.50;;
37459;SDS011;23318;50.966;5.284;2023-11-21T03:06:44;88.53;;;22.42;;
37459;SDS011;23318;50.966;5.284;2023-11-21T03:09:10;84.70;;;20.27;;
37459;SDS011;23318;50.966;5.284;2023-11-21T03:11:39;77.45;;;21.67;;
37459;SDS011;23318;50.966;5.284;2023-11-21T03:14:05;80.10;;;22.17;;
37459;SDS011;23318;50.966;5.284;2023-11-21T03:16:32;90.07;;;22.55;;
37459;SDS011;23318;50.966;5.284;2023-11-21T03:18:58;88.47;;;22.30;;
37459;SDS011;23318;50.966;5.284;2023-11-21T03:21:24;89.32;;;23.40;;
37459;SDS011;23318;50.966;5.284;2023-11-21T03:23:51;79.57;;;23.08;;
37459;SDS011;23318;50.966;5.284;2023-11-21T03:26:17;83.78;;;22.55;;
37459;SDS011;23318;50.966;5.284;2023-11-21T03:28:43;85.95;;;23.00;;
37459;SDS011;23318;50.966;5.284;2023-11-21T03:31:09;91.97;;;22.98;;
37459;SDS011;23318;50.966;5.284;2023-11-21T03:33:35;85.68;;;22.15;;
37459;SDS011;23318;50.966;5.284;2023-11-21T03:36:01;81.78;;;21.92;;
37459;SDS011;23318;50.966;5.284;2023-11-21T03:38:26;88.22;;;19.30;;
37459;SDS011;23318;50.966;5.284;2023-11-21T03:40:52;73.38;;;20.42;;
37459;SDS011;23318;50.966;5.284;2023-11-21T03:43:18;64.28;;;17.33;;
37459;SDS011;23318;50.966;5.284;2023-11-21T03:45:44;71.68;;;18.52;;
37459;SDS011;23318;50.966;5.284;2023-11-21T03:48:10;63.25;;;18.55;;
37459;SDS011;23318;50.966;5.284;2023-11-21T03:50:37;63.28;;;17.10;;
37459;SDS011;23318;50.966;5.284;2023-11-21T03:53:03;70.72;;;18.00;;
37459;SDS011;23318;50.966;5.284;2023-11-21T03:55:29;61.00;;;17.70;;
37459;SDS011;23318;50.966;5.284;2023-11-21T03:57:56;74.07;;;18.05;;
37459;SDS011;23318;50.966;5.284;2023-11-21T04:00:22;75.25;;;18.63;;
37459;SDS011;23318;50.966;5.284;2023-11-21T04:02:48;63.50;;;16.25;;
37459;SDS011;23318;50.966;5.284;2023-11-21T04:05:16;61.42;;;16.95;;
37459;SDS011;23318;50.966;5.284;2023-11-21T04:07:42;67.60;;;15.90;;
37459;SDS011;23318;50.966;5.284;2023-11-21T04:10:08;61.38;;;15.98;;
37459;SDS011;23318;50.966;5.284;2023-11-21T04:12:37;61.70;;;14.23;;
37459;SDS011;23318;50.966;5.284;2023-11-21T04:15:03;66.43;;;16.00;;
37459;SDS011;23318;50.966;5.284;2023-11-21T04:17:29;75.35;;;14.65;;
37459;SDS011;23318;50.966;5.284;2023-11-21T04:19:55;59.80;;;14.77;;
37459;SDS011;23318;50.966;5.284;2023-11-21T04:22:21;51.15;;;14.07;;
37459;SDS011;23318;50.966;5.284;2023-11-21T04:24:47;55.58;;;13.48;;
37459;SDS011;23318;50.966;5.284;2023-11-21T04:27:12;63.35;;;14.25;;
37459;SDS011;23318;50.966;5.284;2023-11-21T04:29:39;60.97;;;14.13;;
37459;SDS011;23318;50.966;5.284;2023-11-21T04:32:06;52.50;;;14.40;;
37459;SDS011;23318;50.966;5.284;2023-11-21T04:34:32;60.28;;;16.63;;
37459;SDS011;23318;50.966;5.284;2023-11-21T04:36:59;68.50;;;15.00;;
37459;SDS011;23318;50.966;5.284;2023-11-21T04:39:25;69.20;;;15.63;;
37459;SDS011;23318;50.966;5.284;2023-11-21T04:41:51;64.93;;;15.57;;
37459;SDS011;23318;50.966;5.284;2023-11-21T04:44:17;75.45;;;15.68;;
37459;SDS011;23318;50.966;5.284;2023-11-21T04:46:43;60.72;;;16.58;;
37459;SDS011;23318;50.966;5.284;2023-11-21T04:49:08;69.97;;;16.58;;
37459;SDS011;23318;50.966;5.284;2023-11-21T04:51:34;63.42;;;17.67;;
37459;SDS011;23318;50.966;5.284;2023-11-21T04:53:59;92.80;;;17.67;;
37459;SDS011;23318;50.966;5.284;2023-11-21T04:56:25;71.97;;;18.38;;
37459;SDS011;23318;50.966;5.284;2023-11-21T04:58:51;67.70;;;16.35;;
37459;SDS011;23318;50.966;5.284;2023-11-21T05:01:17;93.28;;;17.70;;
37459;SDS011;23318;50.966;5.284;2023-11-21T05:03:43;77.47;;;18.33;;
37459;SDS011;23318;50.966;5.284;2023-11-21T05:06:09;86.55;;;19.23;;
37459;SDS011;23318;50.966;5.284;2023-11-21T05:08:35;111.35;;;19.48;;
37459;SDS011;23318;50.966;5.284;2023-11-21T05:11:02;72.30;;;19.15;;
37459;SDS011;23318;50.966;5.284;2023-11-21T05:13:27;125.80;;;19.17;;
37459;SDS011;23318;50.966;5.284;2023-11-21T05:15:56;91.63;;;19.05;;
37459;SDS011;23318;50.966;5.284;2023-11-21T05:18:22;107.30;;;19.48;;
37459;SDS011;23318;50.966;5.284;2023-11-21T05:20:48;76.90;;;18.38;;
37459;SDS011;23318;50.966;5.284;2023-11-21T05:23:13;84.72;;;20.17;;
37459;SDS011;23318;50.966;5.284;2023-11-21T05:25:39;86.35;;;19.20;;
37459;SDS011;23318;50.966;5.284;2023-11-21T05:28:06;67.65;;;18.67;;
37459;SDS011;23318;50.966;5.284;2023-11-21T05:30:32;81.30;;;18.88;;
37459;SDS011;23318;50.966;5.284;2023-11-21T05:32:57;91.38;;;18.20;;
37459;SDS011;23318;50.966;5.284;2023-11-21T05:35:23;75.30;;;17.33;;
37459;SDS011;23318;50.966;5.284;2023-11-21T05:37:49;88.00;;;19.45;;
37459;SDS011;23318;50.966;5.284;2023-11-21T05:40:15;65.95;;;17.50;;
37459;SDS011;23318;50.966;5.284;2023-11-21T05:42:41;91.68;;;17.13;;
37459;SDS011;23318;50.966;5.284;2023-11-21T05:45:07;81.88;;;17.63;;
37459;SDS011;23318;50.966;5.284;2023-11-21T05:47:45;66.28;;;17.55;;
37459;SDS011;23318;50.966;5.284;2023-11-21T05:50:12;103.07;;;17.60;;
37459;SDS011;23318;50.966;5.284;2023-11-21T05:52:45;106.07;;;17.92;;
37459;SDS011;23318;50.966;5.284;2023-11-21T05:55:12;80.63;;;17.77;;
37459;SDS011;23318;50.966;5.284;2023-11-21T05:57:38;68.40;;;18.00;;
37459;SDS011;23318;50.966;5.284;2023-11-21T06:00:05;75.20;;;17.92;;
37459;SDS011;23318;50.966;5.284;2023-11-21T06:02:39;94.25;;;18.83;;
37459;SDS011;23318;50.966;5.284;2023-11-21T06:05:08;67.53;;;17.58;;
37459;SDS011;23318;50.966;5.284;2023-11-21T06:07:35;71.57;;;18.98;;
37459;SDS011;23318;50.966;5.284;2023-11-21T06:10:01;72.50;;;17.83;;
37459;SDS011;23318;50.966;5.284;2023-11-21T06:12:37;68.60;;;18.05;;
37459;SDS011;23318;50.966;5.284;2023-11-21T06:15:05;82.78;;;17.98;;
37459;SDS011;23318;50.966;5.284;2023-11-21T06:17:34;88.50;;;18.20;;
37459;SDS011;23318;50.966;5.284;2023-11-21T06:20:04;74.82;;;17.45;;
37459;SDS011;23318;50.966;5.284;2023-11-21T06:22:39;75.43;;;17.75;;
37459;SDS011;23318;50.966;5.284;2023-11-21T06:25:06;66.72;;;16.52;;
37459;SDS011;23318;50.966;5.284;2023-11-21T06:27:43;72.63;;;18.15;;
37459;SDS011;23318;50.966;5.284;2023-11-21T06:30:10;65.20;;;17.85;;
37459;SDS011;23318;50.966;5.284;2023-11-21T06:32:37;84.88;;;18.98;;
37459;SDS011;23318;50.966;5.284;2023-11-21T06:35:04;68.55;;;18.92;;
37459;SDS011;23318;50.966;5.284;2023-11-21T06:37:31;68.55;;;17.98;;
37459;SDS011;23318;50.966;5.284;2023-11-21T06:39:58;68.38;;;18.40;;
37459;SDS011;23318;50.966;5.284;2023-11-21T06:42:24;58.80;;;18.65;;
37459;SDS011;23318;50.966;5.284;2023-11-21T06:44:51;66.88;;;18.40;;
37459;SDS011;23318;50.966;5.284;2023-11-21T06:47:17;69.40;;;19.67;;
37459;SDS011;23318;50.966;5.284;2023-11-21T06:49:45;72.45;;;19.52;;
37459;SDS011;23318;50.966;5.284;2023-11-21T06:52:12;63.15;;;19.10;;
37459;SDS011;23318;50.966;5.284;2023-11-21T06:54:38;77.93;;;19.13;;
37459;SDS011;23318;50.966;5.284;2023-11-21T06:57:04;73.20;;;19.80;;
37459;SDS011;23318;50.966;5.284;2023-11-21T06:59:30;88.47;;;19.67;;
37459;SDS011;23318;50.966;5.284;2023-11-21T07:01:56;74.95;;;19.40;;
37459;SDS011;23318;50.966;5.284;2023-11-21T07:04:22;74.43;;;18.42;;
37459;SDS011;23318;50.966;5.284;2023-11-21T07:06:47;84.78;;;20.15;;
37459;SDS011;23318;50.966;5.284;2023-11-21T07:09:13;70.90;;;18.75;;
37459;SDS011;23318;50.966;5.284;2023-11-21T07:11:38;80.75;;;19.52;;
37459;SDS011;23318;50.966;5.284;2023-11-21T07:14:04;74.82;;;20.70;;
37459;SDS011;23318;50.966;5.284;2023-11-21T07:16:35;84.65;;;20.05;;
37459;SDS011;23318;50.966;5.284;2023-11-21T07:19:04;69.13;;;19.80;;
37459;SDS011;23318;50.966;5.284;2023-11-21T07:21:31;83.10;;;21.02;;
37459;SDS011;23318;50.966;5.284;2023-11-21T07:24:01;91.43;;;19.80;;
37459;SDS011;23318;50.966;5.284;2023-11-21T07:26:27;78.43;;;19.77;;
37459;SDS011;23318;50.966;5.284;2023-11-21T07:28:53;78.95;;;20.02;;
37459;SDS011;23318;50.966;5.284;2023-11-21T07:31:19;71.57;;;18.88;;
37459;SDS011;23318;50.966;5.284;2023-11-21T07:33:46;86.65;;;19.38;;
37459;SDS011;23318;50.966;5.284;2023-11-21T07:36:12;74.65;;;19.77;;
37459;SDS011;23318;50.966;5.284;2023-11-21T07:38:38;68.20;;;19.27;;
37459;SDS011;23318;50.966;5.284;2023-11-21T07:41:05;71.10;;;21.13;;
37459;SDS011;23318;50.966;5.284;2023-11-21T07:43:32;75.63;;;20.88;;
37459;SDS011;23318;50.966;5.284;2023-11-21T07:46:03;96.93;;;22.35;;
37459;SDS011;23318;50.966;5.284;2023-11-21T07:48:29;78.53;;;19.20;;
37459;SDS011;23318;50.966;5.284;2023-11-21T07:50:56;74.38;;;20.52;;
37459;SDS011;23318;50.966;5.284;2023-11-21T07:53:23;83.13;;;21.52;;
37459;SDS011;23318;50.966;5.284;2023-11-21T07:55:55;76.38;;;19.95;;
37459;SDS011;23318;50.966;5.284;2023-11-21T07:58:21;71.65;;;19.75;;
37459;SDS011;23318;50.966;5.284;2023-11-21T08:00:46;69.13;;;19.73;;
37459;SDS011;23318;50.966;5.284;2023-11-21T08:03:13;76.05;;;19.83;;
37459;SDS011;23318;50.966;5.284;2023-11-21T08:05:39;68.30;;;18.73;;
37459;SDS011;23318;50.966;5.284;2023-11-21T08:08:05;65.25;;;19.40;;
37459;SDS011;23318;50.966;5.284;2023-11-21T08:10:30;65.45;;;17.85;;
37459;SDS011;23318;50.966;5.284;2023-11-21T08:12:56;62.28;;;18.48;;
37459;SDS011;23318;50.966;5.284;2023-11-21T08:15:23;62.90;;;19.17;;
37459;SDS011;23318;50.966;5.284;2023-11-21T08:17:49;61.85;;;17.25;;
37459;SDS011;23318;50.966;5.284;2023-11-21T08:20:14;65.88;;;19.13;;
37459;SDS011;23318;50.966;5.284;2023-11-21T08:22:41;66.03;;;19.55;;
37459;SDS011;23318;50.966;5.284;2023-11-21T08:25:10;62.75;;;17.27;;
37459;SDS011;23318;50.966;5.284;2023-11-21T08:27:36;59.35;;;17.92;;
37459;SDS011;23318;50.966;5.284;2023-11-21T08:30:02;58.58;;;18.15;;
37459;SDS011;23318;50.966;5.284;2023-11-21T08:32:29;62.55;;;17.35;;
37459;SDS011;23318;50.966;5.284;2023-11-21T08:34:57;57.20;;;17.95;;
37459;SDS011;23318;50.966;5.284;2023-11-21T08:37:23;62.60;;;18.67;;
37459;SDS011;23318;50.966;5.284;2023-11-21T08:39:49;54.30;;;18.25;;
37459;SDS011;23318;50.966;5.284;2023-11-21T08:42:14;66.28;;;16.83;;
37459;SDS011;23318;50.966;5.284;2023-11-21T08:44:40;67.13;;;19.48;;
37459;SDS011;23318;50.966;5.284;2023-11-21T08:47:06;63.05;;;18.83;;
37459;SDS011;23318;50.966;5.284;2023-11-21T08:49:32;62.15;;;18.77;;
37459;SDS011;23318;50.966;5.284;2023-11-21T08:51:58;54.92;;;17.52;;
37459;SDS011;23318;50.966;5.284;2023-11-21T08:54:25;62.03;;;17.23;;
37459;SDS011;23318;50.966;5.284;2023-11-21T08:56:54;60.83;;;17.73;;
37459;SDS011;23318;50.966;5.284;2023-11-21T08:59:20;55.03;;;17.92;;
37459;SDS011;23318;50.966;5.284;2023-11-21T09:01:46;49.67;;;15.07;;
37459;SDS011;23318;50.966;5.284;2023-11-21T09:04:12;58.88;;;17.40;;
37459;SDS011;23318;50.966;5.284;2023-11-21T09:06:38;41.67;;;15.15;;
37459;SDS011;23318;50.966;5.284;2023-11-21T09:09:05;49.20;;;15.60;;
37459;SDS011;23318;50.966;5.284;2023-11-21T09:11:31;38.47;;;13.93;;
37459;SDS011;23318;50.966;5.284;2023-11-21T09:13:58;49.78;;;14.88;;
37459;SDS011;23318;50.966;5.284;2023-11-21T09:16:25;44.17;;;14.13;;
37459;SDS011;23318;50.966;5.284;2023-11-21T09:18:50;42.63;;;13.90;;
37459;SDS011;23318;50.966;5.284;2023-11-21T09:21:16;42.28;;;14.25;;
37459;SDS011;23318;50.966;5.284;2023-11-21T09:23:43;44.42;;;14.45;;
37459;SDS011;23318;50.966;5.284;2023-11-21T09:26:09;41.90;;;14.77;;
37459;SDS011;23318;50.966;5.284;2023-11-21T09:28:35;40.97;;;14.98;;
37459;SDS011;23318;50.966;5.284;2023-11-21T09:31:03;38.83;;;12.70;;
37459;SDS011;23318;50.966;5.284;2023-11-21T09:33:34;41.42;;;13.10;;
37459;SDS011;23318;50.966;5.284;2023-11-21T09:36:00;35.88;;;13.63;;
37459;SDS011;23318;50.966;5.284;2023-11-21T09:38:26;42.38;;;13.63;;
37459;SDS011;23318;50.966;5.284;2023-11-21T09:40:53;36.92;;;13.20;;
37459;SDS011;23318;50.966;5.284;2023-11-21T09:43:20;35.92;;;13.25;;
37459;SDS011;23318;50.966;5.284;2023-11-21T09:45:47;35.47;;;14.70;;
37459;SDS011;23318;50.966;5.284;2023-11-21T09:48:18;41.42;;;13.95;;
37459;SDS011;23318;50.966;5.284;2023-11-21T09:50:45;37.80;;;14.02;;
37459;SDS011;23318;50.966;5.284;2023-11-21T09:53:13;43.10;;;15.93;;
37459;SDS011;23318;50.966;5.284;2023-11-21T09:55:52;40.90;;;15.10;;
37459;SDS011;23318;50.966;5.284;2023-11-21T09:58:19;46.38;;;15.75;;
37459;SDS011;23318;50.966;5.284;2023-11-21T10:00:47;47.83;;;15.15;;
37459;SDS011;23318;50.966;5.284;2023-11-21T10:03:14;47.67;;;14.98;;
37459;SDS011;23318;50.966;5.284;2023-11-21T10:05:44;42.60;;;14.73;;
37459;SDS011;23318;50.966;5.284;2023-11-21T10:08:11;42.45;;;14.27;;
37459;SDS011;23318;50.966;5.284;2023-11-21T10:10:38;45.92;;;15.93;;
37459;SDS011;23318;50.966;5.284;2023-11-21T10:13:14;49.35;;;15.88;;
37459;SDS011;23318;50.966;5.284;2023-11-21T10:15:42;40.22;;;14.77;;
37459;SDS011;23318;50.966;5.284;2023-11-21T10:18:13;46.13;;;16.02;;
37459;SDS011;23318;50.966;5.284;2023-11-21T10:20:43;43.35;;;14.57;;
37459;SDS011;23318;50.966;5.284;2023-11-21T10:23:11;48.88;;;16.85;;
37459;SDS011;23318;50.966;5.284;2023-11-21T10:25:37;43.78;;;14.77;;
37459;SDS011;23318;50.966;5.284;2023-11-21T10:28:04;43.55;;;14.82;;
37459;SDS011;23318;50.966;5.284;2023-11-21T10:30:32;46.63;;;16.58;;
37459;SDS011;23318;50.966;5.284;2023-11-21T10:33:02;43.45;;;16.60;;
37459;SDS011;23318;50.966;5.284;2023-11-21T10:35:44;43.20;;;15.57;;
37459;SDS011;23318;50.966;5.284;2023-11-21T10:38:16;49.50;;;15.98;;
37459;SDS011;23318;50.966;5.284;2023-11-21T10:40:42;46.08;;;15.13;;
37459;SDS011;23318;50.966;5.284;2023-11-21T10:43:09;45.78;;;15.27;;
37459;SDS011;23318;50.966;5.284;2023-11-21T10:45:36;45.85;;;14.43;;
37459;SDS011;23318;50.966;5.284;2023-11-21T10:48:06;40.17;;;14.38;;
37459;SDS011;23318;50.966;5.284;2023-11-21T10:50:35;44.87;;;14.67;;
37459;SDS011;23318;50.966;5.284;2023-11-21T10:53:05;45.92;;;14.77;;
37459;SDS011;23318;50.966;5.284;2023-11-21T10:55:31;41.78;;;14.88;;
37459;SDS011;23318;50.966;5.284;2023-11-21T10:57:58;42.55;;;13.07;;
37459;SDS011;23318;50.966;5.284;2023-11-21T11:00:27;39.95;;;14.23;;
37459;SDS011;23318;50.966;5.284;2023-11-21T11:02:54;40.83;;;14.20;;
37459;SDS011;23318;50.966;5.284;2023-11-21T11:05:21;40.72;;;14.10;;
37459;SDS011;23318;50.966;5.284;2023-11-21T11:07:52;45.88;;;14.88;;
37459;SDS011;23318;50.966;5.284;2023-11-21T11:10:26;38.55;;;13.60;;
37459;SDS011;23318;50.966;5.284;2023-11-21T11:12:54;37.83;;;12.80;;
37459;SDS011;23318;50.966;5.284;2023-11-21T11:15:20;36.22;;;13.68;;
37459;SDS011;23318;50.966;5.284;2023-11-21T11:17:46;38.75;;;14.38;;
37459;SDS011;23318;50.966;5.284;2023-11-21T11:20:14;48.60;;;15.65;;
37459;SDS011;23318;50.966;5.284;2023-11-21T11:25:42;37.92;;;14.23;;
37459;SDS011;23318;50.966;5.284;2023-11-21T11:37:02;47.63;;;15.77;;
37459;SDS011;23318;50.966;5.284;2023-11-21T11:39:33;49.70;;;15.50;;
37459;SDS011;23318;50.966;5.284;2023-11-21T11:42:01;43.03;;;14.68;;
37459;SDS011;23318;50.966;5.284;2023-11-21T11:47:35;50.80;;;16.27;;
37459;SDS011;23318;50.966;5.284;2023-11-21T11:50:06;51.10;;;16.13;;
37459;SDS011;23318;50.966;5.284;2023-11-21T11:52:34;47.92;;;16.27;;
37459;SDS011;23318;50.966;5.284;2023-11-21T11:55:10;45.80;;;14.93;;
37459;SDS011;23318;50.966;5.284;2023-11-21T11:57:38;48.67;;;16.15;;
37459;SDS011;23318;50.966;5.284;2023-11-21T12:02:39;43.97;;;15.63;;
37459;SDS011;23318;50.966;5.284;2023-11-21T12:05:09;45.22;;;16.05;;
37459;SDS011;23318;50.966;5.284;2023-11-21T12:07:42;44.45;;;15.38;;
37459;SDS011;23318;50.966;5.284;2023-11-21T12:10:11;43.25;;;16.40;;
37459;SDS011;23318;50.966;5.284;2023-11-21T12:12:49;46.50;;;16.35;;
37459;SDS011;23318;50.966;5.284;2023-11-21T12:15:17;36.40;;;13.43;;
37459;SDS011;23318;50.966;5.284;2023-11-21T12:17:44;45.45;;;13.60;;
37459;SDS011;23318;50.966;5.284;2023-11-21T12:20:11;37.75;;;14.35;;
37459;SDS011;23318;50.966;5.284;2023-11-21T12:22:44;42.90;;;14.75;;
37459;SDS011;23318;50.966;5.284;2023-11-21T12:25:21;36.25;;;14.55;;
37459;SDS011;23318;50.966;5.284;2023-11-21T12:27:50;38.00;;;14.50;;
37459;SDS011;23318;50.966;5.284;2023-11-21T12:30:20;42.08;;;15.90;;
37459;SDS011;23318;50.966;5.284;2023-11-21T12:32:50;41.58;;;14.27;;
37459;SDS011;23318;50.966;5.284;2023-11-21T12:35:17;43.67;;;15.25;;
37459;SDS011;23318;50.966;5.284;2023-11-21T12:37:46;39.58;;;15.25;;
37459;SDS011;23318;50.966;5.284;2023-11-21T12:40:13;39.35;;;15.60;;
37459;SDS011;23318;50.966;5.284;2023-11-21T12:42:40;40.20;;;15.63;;
37459;SDS011;23318;50.966;5.284;2023-11-21T12:47:44;42.70;;;15.55;;
37459;SDS011;23318;50.966;5.284;2023-11-21T12:50:15;40.80;;;16.10;;
37459;SDS011;23318;50.966;5.284;2023-11-21T12:52:46;39.35;;;15.23;;
37459;SDS011;23318;50.966;5.284;2023-11-21T12:55:13;52.97;;;16.60;;
37459;SDS011;23318;50.966;5.284;2023-11-21T12:57:49;46.67;;;16.58;;
37459;SDS011;23318;50.966;5.284;2023-11-21T13:00:30;45.85;;;16.10;;
37459;SDS011;23318;50.966;5.284;2023-11-21T13:02:58;51.13;;;17.55;;
37459;SDS011;23318;50.966;5.284;2023-11-21T13:05:28;38.22;;;15.75;;
37459;SDS011;23318;50.966;5.284;2023-11-21T13:08:04;46.08;;;16.58;;
37459;SDS011;23318;50.966;5.284;2023-11-21T13:10:33;47.83;;;17.70;;
37459;SDS011;23318;50.966;5.284;2023-11-21T13:13:01;47.38;;;17.88;;
37459;SDS011;23318;50.966;5.284;2023-11-21T13:15:31;49.10;;;18.00;;
37459;SDS011;23318;50.966;5.284;2023-11-21T13:17:58;52.40;;;18.83;;
37459;SDS011;23318;50.966;5.284;2023-11-21T13:20:27;55.70;;;18.50;;
37459;SDS011;23318;50.966;5.284;2023-11-21T13:22:55;50.05;;;18.80;;
37459;SDS011;23318;50.966;5.284;2023-11-21T13:25:28;51.53;;;18.63;;
37459;SDS011;23318;50.966;5.284;2023-11-21T13:27:54;49.75;;;18.77;;
37459;SDS011;23318;50.966;5.284;2023-11-21T13:30:20;49.13;;;17.05;;
37459;SDS011;23318;50.966;5.284;2023-11-21T13:33:14;45.83;;;17.33;;
37459;SDS011;23318;50.966;5.284;2023-11-21T13:35:46;40.67;;;16.25;;
37459;SDS011;23318;50.966;5.284;2023-11-21T13:38:15;52.33;;;18.20;;
37459;SDS011;23318;50.966;5.284;2023-11-21T13:40:46;49.90;;;18.63;;
37459;SDS011;23318;50.966;5.284;2023-11-21T13:43:18;40.88;;;17.25;;
37459;SDS011;23318;50.966;5.284;2023-11-21T13:45:47;43.58;;;16.77;;
37459;SDS011;23318;50.966;5.284;2023-11-21T13:48:23;46.97;;;16.77;;
37459;SDS011;23318;50.966;5.284;2023-11-21T13:51:15;40.05;;;15.65;;
37459;SDS011;23318;50.966;5.284;2023-11-21T13:53:45;36.42;;;15.02;;
37459;SDS011;23318;50.966;5.284;2023-11-21T13:56:14;47.25;;;16.92;;
37459;SDS011;23318;50.966;5.284;2023-11-21T13:58:48;35.67;;;16.80;;
37459;SDS011;23318;50.966;5.284;2023-11-21T14:01:19;41.10;;;14.98;;
37459;SDS011;23318;50.966;5.284;2023-11-21T14:03:55;45.28;;;16.13;;
37459;SDS011;23318;50.966;5.284;2023-11-21T14:06:40;38.83;;;15.73;;
37459;SDS011;23318;50.966;5.284;2023-11-21T14:09:13;51.17;;;16.67;;
37459;SDS011;23318;50.966;5.284;2023-11-21T14:11:50;45.80;;;16.85;;
37459;SDS011;23318;50.966;5.284;2023-11-21T14:14:21;38.45;;;14.52;;
37459;SDS011;23318;50.966;5.284;2023-11-21T14:16:47;31.50;;;14.18;;
37459;SDS011;23318;50.966;5.284;2023-11-21T14:19:13;37.60;;;14.73;;
37459;SDS011;23318;50.966;5.284;2023-11-21T14:21:41;27.63;;;12.52;;
37459;SDS011;23318;50.966;5.284;2023-11-21T14:24:10;28.17;;;11.85;;
37459;SDS011;23318;50.966;5.284;2023-11-21T14:26:42;28.10;;;12.10;;
37459;SDS011;23318;50.966;5.284;2023-11-21T14:29:11;22.52;;;10.70;;
37459;SDS011;23318;50.966;5.284;2023-11-21T14:31:39;25.58;;;12.43;;
37459;SDS011;23318;50.966;5.284;2023-11-21T14:34:06;32.10;;;11.65;;
37459;SDS011;23318;50.966;5.284;2023-11-21T14:36:33;22.98;;;10.65;;
37459;SDS011;23318;50.966;5.284;2023-11-21T14:38:59;24.02;;;9.68;;
37459;SDS011;23318;50.966;5.284;2023-11-21T14:41:24;24.10;;;10.30;;
37459;SDS011;23318;50.966;5.284;2023-11-21T14:43:50;25.27;;;10.73;;